createdAt,value
2022-12-01T00:00:43.549Z,0.58
2022-12-01T00:03:57.905Z,0.56
2022-12-01T00:07:10.010Z,0.57
2022-12-01T00:10:31.146Z,0.54
2022-12-01T00:13:43.538Z,0.53
2022-12-01T00:16:55.222Z,0.53
2022-12-01T00:20:06.939Z,0.54
2022-12-01T00:23:18.670Z,0.54
2022-12-01T00:26:31.934Z,0.59
2022-12-01T00:29:44.066Z,0.55
2022-12-01T00:32:56.275Z,0.51
2022-12-01T00:36:10.323Z,0.61
2022-12-01T00:39:22.199Z,0.59
2022-12-01T00:42:34.494Z,0.54
2022-12-01T00:45:48.420Z,0.58
2022-12-01T00:49:00.325Z,0.63
2022-12-01T00:52:14.238Z,0.62
2022-12-01T00:55:26.638Z,0.63
2022-12-01T00:58:38.456Z,0.58
2022-12-01T01:01:50.244Z,0.63
2022-12-01T01:05:02.759Z,0.61
2022-12-01T01:08:17.218Z,0.65
2022-12-01T01:11:29.092Z,0.66
2022-12-01T01:14:41.321Z,0.66
2022-12-01T01:17:53.148Z,0.67
2022-12-01T01:21:08.619Z,0.68
2022-12-01T01:24:22.422Z,0.69
2022-12-01T01:27:34.134Z,0.69
2022-12-01T01:30:48.136Z,0.68
2022-12-01T01:34:01.142Z,0.66
2022-12-01T01:37:12.835Z,0.66
2022-12-01T01:40:25.211Z,0.66
2022-12-01T01:44:02.017Z,0.66
2022-12-01T01:47:13.936Z,0.57
2022-12-01T01:50:30.915Z,0.65
2022-12-01T01:53:43.232Z,0.65
2022-12-01T01:56:57.331Z,0.65
2022-12-01T02:00:15.649Z,0.68
2022-12-01T02:03:29.520Z,0.72
2022-12-01T02:06:41.432Z,0.67
2022-12-01T02:09:53.161Z,0.71
2022-12-01T02:13:18.344Z,0.74
2022-12-01T02:16:35.663Z,0.78
2022-12-01T02:20:22.428Z,0.79
2022-12-01T02:24:02.875Z,0.77
2022-12-01T02:27:19.303Z,0.75
2022-12-01T02:30:43.628Z,0.46
2022-12-01T02:34:01.253Z,0.71
2022-12-01T02:37:19.109Z,0.72
2022-12-01T02:40:35.706Z,0.77
2022-12-01T02:43:53.903Z,0.69
2022-12-01T02:47:11.970Z,0.68
2022-12-01T02:50:26.203Z,0.70
2022-12-01T02:53:38.304Z,0.69
2022-12-01T02:56:51.170Z,0.74
2022-12-01T03:00:03.248Z,0.72
2022-12-01T03:03:33.665Z,0.77
2022-12-01T03:06:53.054Z,0.77
2022-12-01T03:10:11.693Z,0.78
2022-12-01T03:13:33.630Z,0.79
2022-12-01T03:16:54.201Z,0.81
2022-12-01T03:20:12.185Z,0.81
2022-12-01T03:23:27.920Z,0.79
2022-12-01T03:26:42.541Z,0.84
2022-12-01T03:29:57.768Z,0.85
2022-12-01T03:33:14.996Z,0.79
2022-12-01T03:36:34.036Z,0.79
2022-12-01T03:39:48.486Z,0.85
2022-12-01T03:43:04.616Z,0.88
2022-12-01T03:46:21.917Z,0.86
2022-12-01T03:49:34.706Z,0.89
2022-12-01T03:52:53.879Z,0.91
2022-12-01T03:56:09.570Z,0.91
2022-12-01T03:59:25.374Z,0.94
2022-12-01T04:02:38.219Z,0.96
2022-12-01T04:05:50.381Z,1.01
2022-12-01T04:09:02.072Z,1.05
2022-12-01T04:12:34.201Z,1.06
2022-12-01T04:15:46.008Z,1.06
2022-12-01T04:18:57.807Z,1.08
2022-12-01T04:22:09.455Z,1.12
2022-12-01T04:25:21.261Z,1.11
2022-12-01T04:28:32.984Z,1.15
2022-12-01T04:31:45.179Z,1.18
2022-12-01T04:34:57.104Z,1.20
2022-12-01T04:38:16.523Z,1.19
2022-12-01T04:41:28.501Z,1.21
2022-12-01T04:44:40.445Z,1.26
2022-12-01T04:47:52.138Z,1.27
2022-12-01T04:51:04.244Z,1.28
2022-12-01T04:54:16.516Z,1.27
2022-12-01T04:57:28.231Z,1.31
2022-12-01T05:00:40.178Z,1.31
2022-12-01T05:03:54.138Z,1.36
2022-12-01T05:07:06.014Z,1.38
2022-12-01T05:10:19.090Z,1.39
2022-12-01T05:13:30.950Z,1.41
2022-12-01T05:16:42.890Z,1.44
2022-12-01T05:20:09.582Z,1.46
2022-12-01T05:31:15.901Z,1.46
2022-12-01T05:42:29.077Z,1.49
2022-12-01T05:45:41.167Z,1.49
2022-12-01T05:48:53.052Z,1.51
2022-12-01T05:52:15.734Z,1.54
2022-12-01T05:55:27.676Z,1.52
2022-12-01T06:02:19.978Z,1.54
2022-12-01T06:05:32.074Z,1.54
2022-12-01T06:12:32.104Z,1.51
2022-12-01T06:15:57.996Z,1.53
2022-12-01T06:19:17.301Z,1.53
2022-12-01T06:22:29.060Z,1.57
2022-12-01T06:25:40.888Z,1.53
2022-12-01T06:28:52.577Z,1.58
2022-12-01T06:32:04.214Z,1.59
2022-12-01T06:35:16.765Z,1.54
2022-12-01T06:38:28.351Z,1.51
2022-12-01T06:41:40.246Z,1.57
2022-12-01T06:44:51.817Z,1.52
2022-12-01T06:48:04.057Z,1.50
2022-12-01T06:51:16.122Z,1.54
2022-12-01T06:54:27.910Z,1.55
2022-12-01T06:57:39.977Z,1.55
2022-12-01T07:00:52.428Z,1.60
2022-12-01T07:04:04.149Z,1.63
2022-12-01T07:07:16.501Z,1.60
2022-12-01T07:10:28.285Z,1.58
2022-12-01T07:13:40.162Z,1.52
2022-12-01T07:16:51.811Z,1.62
2022-12-01T07:20:04.066Z,1.65
2022-12-01T07:23:16.470Z,1.61
2022-12-01T07:26:28.195Z,1.61
2022-12-01T07:29:39.820Z,1.62
2022-12-01T07:32:51.477Z,1.64
2022-12-01T07:36:03.513Z,1.62
2022-12-01T07:39:15.860Z,1.65
2022-12-01T07:42:27.554Z,1.68
2022-12-01T07:45:40.243Z,1.60
2022-12-01T07:48:52.649Z,1.62
2022-12-01T07:52:04.253Z,1.64
2022-12-01T07:55:16.724Z,1.65
2022-12-01T07:58:28.473Z,1.66
2022-12-01T08:01:44.278Z,1.63
2022-12-01T08:04:54.073Z,1.67
2022-12-01T08:08:05.943Z,1.67
2022-12-01T08:11:21.656Z,1.69
2022-12-01T08:14:33.372Z,1.63
2022-12-01T08:17:44.972Z,1.59
2022-12-01T08:20:58.982Z,1.65
2022-12-01T08:24:12.755Z,1.66
2022-12-01T08:27:24.455Z,1.69
2022-12-01T08:30:36.502Z,1.67
2022-12-01T08:33:48.196Z,1.70
2022-12-01T08:36:59.785Z,1.73
2022-12-01T08:40:14.481Z,1.73
2022-12-01T08:43:56.154Z,1.73
2022-12-01T08:46:41.529Z,1.71
2022-12-01T08:49:53.185Z,1.68
2022-12-01T08:53:04.920Z,1.74
2022-12-01T08:56:20.723Z,1.76
2022-12-01T08:59:32.561Z,1.79
2022-12-01T09:02:44.273Z,1.79
2022-12-01T09:05:56.041Z,1.80
2022-12-01T09:09:08.044Z,1.79
2022-12-01T09:12:20.151Z,1.78
2022-12-01T09:15:31.747Z,1.80
2022-12-01T09:18:44.001Z,1.82
2022-12-01T09:21:55.673Z,1.83
2022-12-01T09:25:09.326Z,1.82
2022-12-01T09:28:21.894Z,1.84
2022-12-01T09:31:34.145Z,1.90
2022-12-01T09:34:45.922Z,1.86
2022-12-01T09:37:57.670Z,1.81
2022-12-01T09:41:13.536Z,1.84
2022-12-01T09:44:35.757Z,1.85
2022-12-01T09:47:47.893Z,1.88
2022-12-01T09:51:00.467Z,1.87
2022-12-01T09:54:14.866Z,1.88
2022-12-01T09:57:35.374Z,1.91
2022-12-01T10:00:50.710Z,1.97
2022-12-01T10:04:06.738Z,1.94
2022-12-01T10:07:24.023Z,1.93
2022-12-01T10:10:41.085Z,1.94
2022-12-01T10:13:52.846Z,1.95
2022-12-01T10:17:11.503Z,1.92
2022-12-01T10:20:29.384Z,1.92
2022-12-01T10:23:57.044Z,1.93
2022-12-01T10:27:18.769Z,1.90
2022-12-01T10:30:32.144Z,1.85
2022-12-01T10:33:50.143Z,1.82
2022-12-01T10:37:02.904Z,1.86
2022-12-01T10:40:22.778Z,1.86
2022-12-01T10:43:39.281Z,1.87
2022-12-01T10:46:56.690Z,1.84
2022-12-01T10:50:12.673Z,1.86
2022-12-01T10:53:39.685Z,1.86
2022-12-01T10:56:53.798Z,1.89
2022-12-01T11:00:10.843Z,1.87
2022-12-01T11:03:27.831Z,1.88
2022-12-01T11:06:40.538Z,1.89
2022-12-01T11:10:02.725Z,1.92
2022-12-01T11:13:23.611Z,1.85
2022-12-01T11:16:49.256Z,1.86
2022-12-01T11:20:01.290Z,1.80
2022-12-01T11:23:41.573Z,1.77
2022-12-01T11:26:53.307Z,1.74
2022-12-01T11:30:09.651Z,1.76
2022-12-01T11:33:22.515Z,1.84
2022-12-01T11:36:39.021Z,1.83
2022-12-01T11:39:52.618Z,1.84
2022-12-01T11:43:09.083Z,1.83
2022-12-01T11:46:21.023Z,1.84
2022-12-01T11:49:35.897Z,1.79
2022-12-01T11:52:53.898Z,1.84
2022-12-01T11:56:23.619Z,1.89
2022-12-01T11:59:36.092Z,1.86
2022-12-01T12:02:56.825Z,1.77
2022-12-01T12:09:48.212Z,1.76
2022-12-01T12:13:13.858Z,1.83
2022-12-01T12:16:33.461Z,1.77
2022-12-01T12:20:10.048Z,1.81
2022-12-01T12:23:37.425Z,1.80
2022-12-01T12:26:54.988Z,1.76
2022-12-01T12:30:22.009Z,1.80
2022-12-01T12:34:32.615Z,1.71
2022-12-01T12:37:50.542Z,1.75
2022-12-01T12:41:07.970Z,1.78
2022-12-01T12:44:53.103Z,1.74
2022-12-01T12:48:20.086Z,1.75
2022-12-01T12:51:38.424Z,1.76
2022-12-01T12:54:55.281Z,1.80
2022-12-01T12:58:12.610Z,1.82
2022-12-01T13:01:29.204Z,1.83
2022-12-01T13:04:46.747Z,1.78
2022-12-01T13:08:03.942Z,1.81
2022-12-01T13:11:20.853Z,1.80
2022-12-01T13:14:38.732Z,1.77
2022-12-01T13:17:55.461Z,1.76
2022-12-01T13:21:10.414Z,1.78
2022-12-01T13:24:24.569Z,1.78
2022-12-01T13:27:40.464Z,1.79
2022-12-01T13:31:07.191Z,1.68
2022-12-01T13:34:28.881Z,1.70
2022-12-01T13:37:43.874Z,1.75
2022-12-01T13:41:11.221Z,1.77
2022-12-01T13:44:29.153Z,1.73
2022-12-01T13:47:57.901Z,1.78
2022-12-01T13:51:10.671Z,1.76
2022-12-01T13:54:39.806Z,1.78
2022-12-01T13:57:54.284Z,1.74
2022-12-01T14:01:57.501Z,1.73
2022-12-01T14:05:49.765Z,1.79
2022-12-01T14:09:06.481Z,1.71
2022-12-01T14:12:29.081Z,1.68
2022-12-01T14:15:47.695Z,1.67
2022-12-01T14:19:02.775Z,1.68
2022-12-01T14:22:32.760Z,1.65
2022-12-01T14:25:45.252Z,1.66
2022-12-01T14:29:38.438Z,1.66
2022-12-01T14:32:50.235Z,1.67
2022-12-01T14:36:05.347Z,1.66
2022-12-01T14:39:22.176Z,1.65
2022-12-01T14:42:57.507Z,1.62
2022-12-01T14:46:14.726Z,1.67
2022-12-01T14:49:32.478Z,1.60
2022-12-01T14:52:49.512Z,1.62
2022-12-01T14:56:01.829Z,1.64
2022-12-01T14:59:26.428Z,1.60
2022-12-01T15:02:38.658Z,1.53
2022-12-01T15:05:52.527Z,1.55
2022-12-01T15:09:33.363Z,1.60
2022-12-01T15:12:38.437Z,1.63
2022-12-01T15:16:00.413Z,1.67
2022-12-01T15:19:38.824Z,1.68
2022-12-01T15:22:51.107Z,1.65
2022-12-01T15:26:03.543Z,1.59
2022-12-01T15:29:28.260Z,1.65
2022-12-01T15:32:43.243Z,1.66
2022-12-01T15:35:56.280Z,1.65
2022-12-01T15:39:08.247Z,1.57
2022-12-01T15:42:29.524Z,1.50
2022-12-01T15:45:57.566Z,1.57
2022-12-01T15:49:23.624Z,1.56
2022-12-01T15:52:38.512Z,1.57
2022-12-01T15:55:58.616Z,1.59
2022-12-01T15:59:13.364Z,1.56
2022-12-01T16:02:32.924Z,1.56
2022-12-01T16:05:47.598Z,1.58
2022-12-01T16:09:07.762Z,1.57
2022-12-01T16:12:32.341Z,1.59
2022-12-01T16:15:51.292Z,1.60
2022-12-01T16:19:05.764Z,1.57
2022-12-01T16:22:24.683Z,1.56
2022-12-01T16:25:44.204Z,1.52
2022-12-01T16:28:56.206Z,1.56
2022-12-01T16:32:23.252Z,1.55
2022-12-01T16:35:37.847Z,1.59
2022-12-01T16:38:49.682Z,1.60
2022-12-01T16:42:05.757Z,1.58
2022-12-01T16:45:20.359Z,1.60
2022-12-01T16:48:32.080Z,1.58
2022-12-01T16:51:55.433Z,1.58
2022-12-01T16:54:57.946Z,1.63
2022-12-01T16:58:09.903Z,1.65
2022-12-01T17:01:21.739Z,1.64
2022-12-01T17:04:34.173Z,1.59
2022-12-01T17:07:46.118Z,1.57
2022-12-01T17:10:58.930Z,1.56
2022-12-01T17:14:10.629Z,1.60
2022-12-01T17:17:22.346Z,1.60
2022-12-01T17:20:34.213Z,1.61
2022-12-01T17:23:46.510Z,1.60
2022-12-01T17:26:58.496Z,1.58
2022-12-01T17:30:12.865Z,1.57
2022-12-01T17:33:26.373Z,1.54
2022-12-01T17:36:38.109Z,1.53
2022-12-01T17:39:50.097Z,1.50
2022-12-01T17:43:02.002Z,1.47
2022-12-01T17:46:17.044Z,1.50
2022-12-01T17:49:28.967Z,1.54
2022-12-01T17:52:40.926Z,1.53
2022-12-01T17:55:53.103Z,1.53
2022-12-01T17:59:05.348Z,1.52
2022-12-01T18:02:19.767Z,1.49
2022-12-01T18:05:32.352Z,1.45
2022-12-01T18:08:45.220Z,1.46
2022-12-01T18:11:57.763Z,1.48
2022-12-01T18:15:12.106Z,1.50
2022-12-01T18:18:23.940Z,1.52
2022-12-01T18:21:36.613Z,1.51
2022-12-01T18:24:49.404Z,1.52
2022-12-01T18:28:01.694Z,1.54
2022-12-01T18:31:16.676Z,1.51
2022-12-01T18:34:29.582Z,1.47
2022-12-01T18:37:41.654Z,1.46
2022-12-01T18:40:53.920Z,1.41
2022-12-01T18:44:05.830Z,1.43
2022-12-01T18:47:17.911Z,1.41
2022-12-01T18:50:30.023Z,1.42
2022-12-01T18:53:42.633Z,1.38
2022-12-01T18:56:59.485Z,1.34
2022-12-01T19:00:14.922Z,1.37
2022-12-01T19:03:26.795Z,1.39
2022-12-01T19:06:42.517Z,1.41
2022-12-01T19:09:54.599Z,1.43
2022-12-01T19:13:07.544Z,1.39
2022-12-01T19:16:22.958Z,1.37
2022-12-01T19:19:37.618Z,1.39
2022-12-01T19:22:49.231Z,1.40
2022-12-01T19:26:01.199Z,1.43
2022-12-01T19:29:13.508Z,1.42
2022-12-01T19:32:25.792Z,1.35
2022-12-01T19:35:37.661Z,1.32
2022-12-01T19:38:50.735Z,1.29
2022-12-01T19:42:03.647Z,1.31
2022-12-01T19:45:18.379Z,1.26
2022-12-01T19:48:30.317Z,1.26
2022-12-01T19:51:44.171Z,1.28
2022-12-01T19:54:56.015Z,1.28
2022-12-01T19:58:08.167Z,1.23
2022-12-01T20:01:24.183Z,1.24
2022-12-01T20:04:36.367Z,1.25
2022-12-01T20:07:48.241Z,1.25
2022-12-01T20:11:01.374Z,1.21
2022-12-01T20:14:13.702Z,1.19
2022-12-01T20:17:25.712Z,1.20
2022-12-01T20:20:37.758Z,1.13
2022-12-01T20:23:51.100Z,1.14
2022-12-01T20:27:03.046Z,1.18
2022-12-01T20:30:19.107Z,1.22
2022-12-01T20:33:32.333Z,1.16
2022-12-01T20:36:44.961Z,1.15
2022-12-01T20:39:57.851Z,1.15
2022-12-01T20:43:09.727Z,1.18
2022-12-01T20:46:22.435Z,1.08
2022-12-01T20:49:34.583Z,1.10
2022-12-01T20:52:46.484Z,1.12
2022-12-01T20:55:58.472Z,1.06
2022-12-01T20:59:11.758Z,1.05
2022-12-01T21:02:23.611Z,1.01
2022-12-01T21:05:35.738Z,1.06
2022-12-01T21:08:50.972Z,1.10
2022-12-01T21:12:19.839Z,1.12
2022-12-01T21:15:35.287Z,1.12
2022-12-01T21:18:55.433Z,1.10
2022-12-01T21:22:08.951Z,1.09
2022-12-01T21:25:25.710Z,1.10
2022-12-01T21:28:37.567Z,1.09
2022-12-01T21:31:49.573Z,1.03
2022-12-01T21:35:07.711Z,1.04
2022-12-01T21:38:22.343Z,1.02
2022-12-01T21:41:36.032Z,1.06
2022-12-01T21:44:48.003Z,1.07
2022-12-01T21:48:02.707Z,1.10
2022-12-01T21:51:23.056Z,1.04
2022-12-01T21:54:36.267Z,1.03
2022-12-01T21:57:50.941Z,1.01
2022-12-01T22:01:05.453Z,0.96
2022-12-01T22:04:25.614Z,0.97
2022-12-01T22:07:37.469Z,0.94
2022-12-01T22:11:11.435Z,0.98
2022-12-01T22:14:26.020Z,0.94
2022-12-01T22:17:41.102Z,0.91
2022-12-01T22:20:52.820Z,0.93
2022-12-01T22:24:30.270Z,0.98
2022-12-01T22:27:44.027Z,0.97
2022-12-01T22:30:55.872Z,0.86
2022-12-01T22:34:08.374Z,0.91
2022-12-01T22:37:25.512Z,0.92
2022-12-01T22:40:59.613Z,0.90
2022-12-01T22:44:15.475Z,0.95
2022-12-01T22:47:27.659Z,0.86
2022-12-01T22:50:40.169Z,0.75
2022-12-01T22:53:53.104Z,0.71
2022-12-01T22:57:20.205Z,0.72
2022-12-01T23:00:33.093Z,0.73
2022-12-01T23:03:44.773Z,0.67
2022-12-01T23:07:12.911Z,0.58
2022-12-01T23:10:27.933Z,0.56
2022-12-01T23:13:40.032Z,0.61
2022-12-01T23:16:51.930Z,0.56
2022-12-01T23:20:30.684Z,0.59
2022-12-01T23:23:43.505Z,0.54
2022-12-01T23:26:55.212Z,0.55
2022-12-01T23:30:06.966Z,0.54
2022-12-01T23:33:24.301Z,0.49
2022-12-01T23:36:36.342Z,0.51
2022-12-01T23:39:50.037Z,0.43
2022-12-01T23:43:04.399Z,0.40
2022-12-01T23:46:20.074Z,0.40
2022-12-01T23:49:35.786Z,0.38
2022-12-01T23:52:47.774Z,0.37
2022-12-01T23:56:00.214Z,0.38
2022-12-01T23:59:16.800Z,0.34
